Time;durP1;ratioP1;P1;durP2;ratioP2;P2;SDS_P1;SDS_P2;PMS_P1;PMS_P2;Temp;Humidity;BMP_temperature;BMP_pressure;BME280_temperature;BME280_humidity;BME280_pressure;Samples;Min_cycle;Max_cycle;Signal;HPM_P1;HPM_P2
2023/10/30 00:01:34;;;;;;;1.02;0.50;;;14.70;99.90;;;;;;7391821;19;20190;-80
2023/10/30 00:04:00;;;;;;;1.00;0.85;;;14.50;99.90;;;;;;7389716;19;20138;-79
2023/10/30 00:06:26;;;;;;;0.90;0.80;;;14.80;99.90;;;;;;7385747;19;20134;-80
2023/10/30 00:08:52;;;;;;;1.75;1.05;;;14.80;99.90;;;;;;7381876;19;20504;-78
2023/10/30 00:11:18;;;;;;;2.42;0.80;;;14.80;99.90;;;;;;7382406;19;20145;-79
2023/10/30 00:13:44;;;;;;;0.80;0.57;;;14.70;99.90;;;;;;7385392;19;20146;-79
2023/10/30 00:16:13;;;;;;;0.57;0.57;;;14.80;99.90;;;;;;7385702;19;20221;-79
2023/10/30 00:18:41;;;;;;;0.60;0.60;;;14.80;99.90;;;;;;7385742;19;20427;-79
2023/10/30 00:21:10;;;;;;;0.70;0.70;;;14.70;99.90;;;;;;7383072;19;20170;-80
2023/10/30 00:23:36;;;;;;;0.60;0.60;;;14.80;99.90;;;;;;7389605;19;20163;-80
2023/10/30 00:26:05;;;;;;;0.77;0.77;;;14.90;99.90;;;;;;7386718;19;20151;-79
2023/10/30 00:28:32;;;;;;;0.60;0.60;;;14.60;99.90;;;;;;7385300;19;20138;-79
2023/10/30 00:30:59;;;;;;;1.00;0.88;;;14.80;99.90;;;;;;7384333;19;20615;-79
2023/10/30 00:33:25;;;;;;;0.50;0.50;;;14.80;99.90;;;;;;7386687;19;20130;-79
2023/10/30 00:35:51;;;;;;;0.80;0.80;;;14.80;99.90;;;;;;7388285;19;20581;-79
2023/10/30 00:38:16;;;;;;;1.33;0.77;;;14.60;99.90;;;;;;7388646;19;20621;-79
2023/10/30 00:40:42;;;;;;;0.60;0.60;;;14.70;99.90;;;;;;7392024;19;20137;-80
2023/10/30 00:43:08;;;;;;;2.72;0.80;;;14.90;99.90;;;;;;7388009;19;20126;-80
2023/10/30 00:45:33;;;;;;;0.80;0.80;;;14.90;99.90;;;;;;7392540;19;20130;-79
2023/10/30 00:47:59;;;;;;;0.65;0.60;;;14.80;99.90;;;;;;7390868;19;20158;-78
2023/10/30 00:50:25;;;;;;;1.00;0.80;;;14.80;99.90;;;;;;7393276;19;20130;-79
2023/10/30 00:52:51;;;;;;;0.77;0.60;;;14.90;99.90;;;;;;7381856;19;20134;-79
2023/10/30 00:55:16;;;;;;;2.05;0.60;;;14.90;99.90;;;;;;7381364;19;20133;-78
2023/10/30 00:57:42;;;;;;;0.93;0.68;;;14.80;99.90;;;;;;7380440;19;20635;-79
2023/10/30 01:00:08;;;;;;;1.13;0.65;;;14.80;99.90;;;;;;7381976;19;20477;-79
2023/10/30 01:02:34;;;;;;;0.75;0.70;;;14.90;99.90;;;;;;7377369;19;20135;-79
2023/10/30 01:05:00;;;;;;;1.20;0.57;;;14.90;99.90;;;;;;7384453;19;20130;-78
2023/10/30 01:07:26;;;;;;;1.10;0.73;;;15.00;99.90;;;;;;7377872;19;20943;-79
2023/10/30 01:09:51;;;;;;;1.10;0.52;;;15.00;99.90;;;;;;7385170;19;20133;-81
2023/10/30 01:12:17;;;;;;;1.80;0.77;;;15.00;99.90;;;;;;7386872;19;20550;-82
2023/10/30 01:14:43;;;;;;;1.05;0.90;;;15.00;99.90;;;;;;7387631;19;20155;-79
2023/10/30 01:17:09;;;;;;;0.80;0.55;;;15.00;99.90;;;;;;7377877;19;20145;-79
2023/10/30 01:19:34;;;;;;;0.80;0.80;;;14.90;99.90;;;;;;7377819;19;20189;-79
2023/10/30 01:22:00;;;;;;;0.98;0.82;;;14.70;99.90;;;;;;7389485;19;20246;-79
2023/10/30 01:24:26;;;;;;;1.00;0.82;;;14.40;99.90;;;;;;7386875;19;20145;-79
2023/10/30 01:26:52;;;;;;;0.63;0.60;;;14.60;99.90;;;;;;7386327;19;20148;-80
2023/10/30 01:29:18;;;;;;;1.10;0.88;;;14.70;99.90;;;;;;7387363;19;20237;-80
2023/10/30 01:31:43;;;;;;;0.50;0.50;;;14.90;99.90;;;;;;7383813;19;20142;-78
2023/10/30 01:34:09;;;;;;;1.00;0.80;;;14.90;99.90;;;;;;7385540;19;20263;-79
2023/10/30 01:36:35;;;;;;;0.88;0.75;;;15.00;99.90;;;;;;7380881;19;20539;-79
2023/10/30 01:39:01;;;;;;;1.15;0.60;;;14.90;99.90;;;;;;7384629;19;20223;-79
2023/10/30 01:41:27;;;;;;;0.80;0.63;;;14.90;99.90;;;;;;7382994;19;20142;-78
2023/10/30 01:43:53;;;;;;;1.30;0.90;;;15.00;99.90;;;;;;7389649;19;20155;-79
2023/10/30 01:46:19;;;;;;;0.95;0.80;;;15.00;99.90;;;;;;7382837;19;20154;-78
2023/10/30 01:48:46;;;;;;;0.80;0.75;;;15.00;99.90;;;;;;7392116;19;20194;-78
2023/10/30 01:51:13;;;;;;;1.10;0.73;;;15.00;99.90;;;;;;7399041;19;20142;-79
2023/10/30 01:53:40;;;;;;;1.33;0.70;;;15.00;99.90;;;;;;7383065;19;20150;-79
2023/10/30 01:56:06;;;;;;;0.85;0.68;;;15.00;99.90;;;;;;7390957;19;20135;-79
2023/10/30 01:58:32;;;;;;;0.80;0.80;;;15.00;99.90;;;;;;7396132;19;20134;-79
2023/10/30 02:00:59;;;;;;;1.00;0.80;;;14.80;99.90;;;;;;7387450;19;20143;-80
2023/10/30 02:03:25;;;;;;;1.23;0.60;;;14.90;99.90;;;;;;7393086;19;20183;-79
2023/10/30 02:05:51;;;;;;;0.77;0.77;;;14.70;99.90;;;;;;7394514;19;20151;-80
2023/10/30 02:08:17;;;;;;;1.55;0.80;;;14.80;99.90;;;;;;7397299;19;20170;-79
2023/10/30 02:10:44;;;;;;;1.58;0.82;;;14.90;99.90;;;;;;7395855;19;20209;-78
2023/10/30 02:13:11;;;;;;;1.15;0.88;;;14.90;99.90;;;;;;7394731;19;20175;-79
2023/10/30 02:15:36;;;;;;;0.52;0.50;;;14.60;99.90;;;;;;7389488;19;20816;-80
2023/10/30 02:18:02;;;;;;;1.48;1.25;;;14.30;99.90;;;;;;7393769;19;20162;-79
2023/10/30 02:20:28;;;;;;;0.60;0.60;;;14.50;99.90;;;;;;7391104;19;20177;-79
2023/10/30 02:22:54;;;;;;;1.27;1.17;;;14.50;99.90;;;;;;7401548;19;20202;-79
2023/10/30 02:25:24;;;;;;;0.70;0.70;;;14.40;99.90;;;;;;7394335;19;20134;-79
2023/10/30 02:27:53;;;;;;;0.70;0.70;;;14.20;99.90;;;;;;7396990;19;20138;-79
2023/10/30 02:30:19;;;;;;;0.60;0.60;;;14.20;99.90;;;;;;7391421;19;20153;-79
2023/10/30 02:32:47;;;;;;;1.60;0.70;;;14.30;99.90;;;;;;7398066;19;20131;-78
2023/10/30 02:35:19;;;;;;;0.50;0.50;;;14.50;99.90;;;;;;7390027;19;20137;-79
2023/10/30 02:37:45;;;;;;;0.55;0.55;;;14.50;99.90;;;;;;7392895;19;20599;-78
2023/10/30 02:40:12;;;;;;;0.70;0.65;;;14.30;99.90;;;;;;7398932;19;20147;-79
2023/10/30 02:42:38;;;;;;;0.75;0.68;;;14.40;99.90;;;;;;7396543;19;20159;-79
2023/10/30 02:45:05;;;;;;;0.95;0.52;;;14.40;99.90;;;;;;7389321;19;20147;-79
2023/10/30 02:47:33;;;;;;;0.40;0.40;;;14.50;99.90;;;;;;7384675;19;20153;-79
2023/10/30 02:50:00;;;;;;;0.73;0.73;;;14.70;99.90;;;;;;7395044;19;20143;-79
2023/10/30 02:52:25;;;;;;;0.70;0.70;;;14.80;99.90;;;;;;7391725;19;20146;-79
2023/10/30 02:54:51;;;;;;;0.57;0.57;;;14.70;99.90;;;;;;7387377;19;20150;-79
2023/10/30 02:57:17;;;;;;;1.00;0.80;;;14.80;99.90;;;;;;7390300;19;20174;-79
2023/10/30 02:59:42;;;;;;;0.50;0.50;;;14.60;99.90;;;;;;7394151;19;20147;-80
2023/10/30 03:02:08;;;;;;;1.27;0.60;;;14.40;99.90;;;;;;7390388;19;20214;-80
2023/10/30 03:04:34;;;;;;;1.50;1.20;;;14.10;99.90;;;;;;7391209;19;20131;-79
2023/10/30 03:07:00;;;;;;;1.05;0.50;;;14.20;99.90;;;;;;7393455;19;20143;-79
2023/10/30 03:09:30;;;;;;;0.70;0.68;;;14.10;99.90;;;;;;7383826;19;20131;-79
2023/10/30 03:11:56;;;;;;;0.82;0.80;;;14.20;99.90;;;;;;7395247;19;20145;-77
2023/10/30 03:14:23;;;;;;;0.47;0.45;;;14.50;99.90;;;;;;7389725;19;20131;-79
2023/10/30 03:16:48;;;;;;;0.52;0.50;;;14.60;99.90;;;;;;7389736;19;20145;-78
2023/10/30 03:19:14;;;;;;;1.23;0.70;;;14.70;99.90;;;;;;7386938;19;20170;-79
2023/10/30 03:21:40;;;;;;;0.98;0.43;;;14.70;99.90;;;;;;7391566;19;20198;-81
2023/10/30 03:24:06;;;;;;;0.68;0.50;;;14.70;99.90;;;;;;7392724;19;20154;-79
2023/10/30 03:26:32;;;;;;;0.85;0.70;;;14.70;99.90;;;;;;7390071;19;20153;-79
2023/10/30 03:28:58;;;;;;;0.55;0.55;;;14.60;99.90;;;;;;7391010;19;20126;-78
2023/10/30 03:31:24;;;;;;;0.50;0.50;;;14.50;99.90;;;;;;7390145;19;20472;-79
2023/10/30 03:33:50;;;;;;;0.70;0.60;;;14.40;99.90;;;;;;7391011;19;20134;-79
2023/10/30 03:36:20;;;;;;;0.98;0.55;;;14.50;99.90;;;;;;7388681;19;20154;-80
2023/10/30 03:38:46;;;;;;;0.50;0.50;;;14.20;99.90;;;;;;7390545;19;20131;-79
2023/10/30 03:41:12;;;;;;;0.70;0.63;;;14.30;99.90;;;;;;7385283;19;20594;-78
2023/10/30 03:43:38;;;;;;;1.67;0.55;;;14.30;99.90;;;;;;7392664;19;20202;-78
2023/10/30 03:46:04;;;;;;;0.60;0.60;;;14.30;99.90;;;;;;7392331;19;21610;-79
2023/10/30 03:48:31;;;;;;;0.75;0.60;;;14.30;99.90;;;;;;7389990;19;20133;-79
2023/10/30 03:50:57;;;;;;;0.60;0.60;;;14.50;99.90;;;;;;7388360;19;20165;-79
2023/10/30 03:53:25;;;;;;;0.50;0.50;;;14.30;99.90;;;;;;7389220;19;20591;-80
2023/10/30 03:55:51;;;;;;;0.35;0.35;;;14.00;99.90;;;;;;7390664;19;20141;-79
2023/10/30 03:58:16;;;;;;;0.43;0.43;;;14.00;99.90;;;;;;7390754;19;20150;-81
2023/10/30 04:00:43;;;;;;;0.70;0.70;;;13.90;99.90;;;;;;7387578;19;20158;-79
2023/10/30 04:03:08;;;;;;;0.60;0.60;;;14.10;99.90;;;;;;7387605;19;20138;-80
2023/10/30 04:05:34;;;;;;;0.38;0.38;;;14.00;99.90;;;;;;7390985;19;20145;-78
2023/10/30 04:08:00;;;;;;;2.08;0.55;;;14.00;99.90;;;;;;7389067;19;20591;-78
2023/10/30 04:10:26;;;;;;;0.40;0.40;;;13.90;99.90;;;;;;7390660;19;20168;-77
2023/10/30 04:12:52;;;;;;;0.30;0.30;;;13.80;99.90;;;;;;7390917;19;20577;-78
2023/10/30 04:15:18;;;;;;;0.40;0.40;;;13.80;99.90;;;;;;7387868;19;20126;-78
2023/10/30 04:17:44;;;;;;;0.50;0.47;;;13.90;99.90;;;;;;7391156;19;20142;-77
2023/10/30 04:20:10;;;;;;;0.30;0.30;;;14.10;99.90;;;;;;7387992;19;20204;-77
2023/10/30 04:22:36;;;;;;;1.02;0.65;;;14.20;99.90;;;;;;7386368;19;20138;-78
2023/10/30 04:25:03;;;;;;;0.60;0.55;;;13.90;99.90;;;;;;7386609;19;20135;-78
2023/10/30 04:27:29;;;;;;;0.30;0.30;;;13.90;99.90;;;;;;7382540;19;20218;-78
2023/10/30 04:29:54;;;;;;;0.40;0.40;;;13.60;99.90;;;;;;7385542;19;20142;-78
2023/10/30 04:32:20;;;;;;;0.50;0.50;;;13.50;99.90;;;;;;7384415;19;20433;-78
2023/10/30 04:34:46;;;;;;;1.45;0.65;;;13.40;99.90;;;;;;7390237;19;20146;-80
2023/10/30 04:37:13;;;;;;;0.88;0.73;;;13.60;99.90;;;;;;7388445;19;20154;-79
2023/10/30 04:39:39;;;;;;;0.47;0.47;;;13.80;99.90;;;;;;7390615;19;20180;-79
2023/10/30 04:42:05;;;;;;;0.40;0.40;;;13.90;99.90;;;;;;7378654;19;20156;-78
2023/10/30 04:44:31;;;;;;;0.35;0.35;;;13.80;99.90;;;;;;7387162;19;20591;-78
2023/10/30 04:46:57;;;;;;;0.60;0.60;;;13.70;99.90;;;;;;7388485;19;20182;-79
2023/10/30 04:49:23;;;;;;;0.50;0.50;;;13.70;99.90;;;;;;7390420;19;20147;-78
2023/10/30 04:51:48;;;;;;;0.60;0.57;;;13.70;99.90;;;;;;7386803;19;20134;-78
2023/10/30 04:54:14;;;;;;;0.60;0.43;;;13.80;99.90;;;;;;7387174;19;20138;-78
2023/10/30 04:56:40;;;;;;;0.73;0.60;;;13.60;99.90;;;;;;7382511;19;20899;-78
2023/10/30 04:59:05;;;;;;;0.80;0.80;;;13.20;99.90;;;;;;7387899;19;20206;-78
2023/10/30 05:01:31;;;;;;;0.68;0.50;;;13.30;99.90;;;;;;7383637;19;20138;-79
2023/10/30 05:03:57;;;;;;;0.80;0.60;;;13.40;99.90;;;;;;7390750;19;20161;-78
2023/10/30 05:06:23;;;;;;;0.57;0.35;;;13.70;99.90;;;;;;7393232;19;20143;-80
2023/10/30 05:08:49;;;;;;;0.52;0.35;;;13.50;99.90;;;;;;7388214;19;20142;-78
2023/10/30 05:11:14;;;;;;;0.28;0.28;;;13.70;99.90;;;;;;7388989;19;20175;-78
2023/10/30 05:13:40;;;;;;;0.38;0.38;;;13.60;99.90;;;;;;7380803;19;20166;-79
2023/10/30 05:16:06;;;;;;;0.77;0.43;;;13.70;99.90;;;;;;7383766;19;20134;-78
2023/10/30 05:18:32;;;;;;;0.32;0.32;;;13.60;99.90;;;;;;7387310;19;20142;-78
2023/10/30 05:20:57;;;;;;;0.55;0.30;;;13.80;99.90;;;;;;7386456;19;20625;-80
2023/10/30 05:23:24;;;;;;;0.50;0.50;;;13.50;99.90;;;;;;7381242;19;20618;-78
2023/10/30 05:25:50;;;;;;;0.40;0.40;;;13.50;99.90;;;;;;7381203;19;20500;-78
2023/10/30 05:28:16;;;;;;;0.35;0.35;;;13.60;99.90;;;;;;7388626;19;20162;-78
2023/10/30 05:30:42;;;;;;;0.47;0.47;;;13.70;99.90;;;;;;7381225;19;20146;-78
2023/10/30 05:33:07;;;;;;;0.35;0.35;;;13.70;99.90;;;;;;7388010;19;20167;-79
2023/10/30 05:35:33;;;;;;;1.00;0.82;;;13.90;99.90;;;;;;7382030;19;20595;-78
2023/10/30 05:37:59;;;;;;;0.65;0.55;;;13.90;99.90;;;;;;7388290;19;20619;-79
2023/10/30 05:40:25;;;;;;;0.60;0.60;;;13.90;99.90;;;;;;7386494;19;20134;-78
2023/10/30 05:42:50;;;;;;;0.82;0.73;;;14.10;99.90;;;;;;7382715;19;20480;-79
2023/10/30 05:45:16;;;;;;;0.60;0.60;;;13.70;99.90;;;;;;7383862;19;20545;-78
2023/10/30 05:47:42;;;;;;;0.60;0.60;;;13.50;99.90;;;;;;7384736;19;20206;-78
2023/10/30 05:50:09;;;;;;;2.35;0.80;;;13.50;99.90;;;;;;7384682;19;20143;-78
2023/10/30 05:52:35;;;;;;;1.27;0.70;;;13.50;99.90;;;;;;7388708;19;20158;-81
2023/10/30 05:55:02;;;;;;;1.17;0.73;;;13.50;99.90;;;;;;7381059;19;20522;-80
2023/10/30 05:57:27;;;;;;;0.77;0.73;;;13.40;99.90;;;;;;7380217;19;20130;-78
2023/10/30 05:59:53;;;;;;;1.38;0.80;;;13.60;99.90;;;;;;7386852;19;20447;-78
2023/10/30 06:02:19;;;;;;;1.90;0.70;;;13.70;99.90;;;;;;7386999;19;20631;-80
2023/10/30 06:04:46;;;;;;;1.35;1.00;;;13.80;99.90;;;;;;7382929;19;20150;-78
2023/10/30 06:07:12;;;;;;;0.93;0.88;;;13.80;99.90;;;;;;7386565;19;20315;-79
2023/10/30 06:09:38;;;;;;;0.65;0.65;;;13.50;99.90;;;;;;7387494;19;20578;-79
2023/10/30 06:12:04;;;;;;;1.00;0.90;;;13.40;99.90;;;;;;7385877;19;20150;-78
2023/10/30 06:14:29;;;;;;;1.23;1.10;;;13.70;99.90;;;;;;7388819;19;20155;-80
2023/10/30 06:16:55;;;;;;;1.02;0.90;;;13.70;99.90;;;;;;7381000;19;20151;-80
2023/10/30 06:19:21;;;;;;;0.65;0.65;;;13.70;99.90;;;;;;7384102;19;20241;-80
2023/10/30 06:21:47;;;;;;;1.13;1.02;;;13.50;99.90;;;;;;7389758;19;20135;-79
2023/10/30 06:24:13;;;;;;;0.90;0.68;;;13.30;99.90;;;;;;7379725;19;20158;-79
2023/10/30 06:26:42;;;;;;;0.88;0.80;;;13.30;99.90;;;;;;7388186;19;20225;-80
2023/10/30 06:29:08;;;;;;;1.15;0.90;;;13.60;99.90;;;;;;7382140;19;20262;-80
2023/10/30 06:31:35;;;;;;;2.25;1.00;;;13.80;99.90;;;;;;7383861;19;20146;-80
2023/10/30 06:34:01;;;;;;;1.45;1.20;;;13.60;99.90;;;;;;7394091;19;20170;-81
2023/10/30 06:36:27;;;;;;;0.77;0.70;;;13.60;99.90;;;;;;7391978;19;20131;-83
2023/10/30 06:38:55;;;;;;;1.20;0.93;;;13.70;99.90;;;;;;7397431;19;20130;-82
2023/10/30 06:41:21;;;;;;;1.33;1.13;;;13.70;99.90;;;;;;7396035;19;20229;-80
2023/10/30 06:43:48;;;;;;;1.27;1.15;;;13.90;99.90;;;;;;7397618;19;20142;-87
2023/10/30 06:46:15;;;;;;;0.93;0.90;;;13.90;99.90;;;;;;7396939;19;20137;-85
2023/10/30 06:48:41;;;;;;;1.13;0.98;;;13.70;99.90;;;;;;7394841;19;20127;-83
2023/10/30 06:51:07;;;;;;;0.88;0.80;;;13.70;99.90;;;;;;7396745;19;20607;-82
2023/10/30 06:53:32;;;;;;;1.42;0.63;;;13.50;99.90;;;;;;7394100;19;20159;-76
2023/10/30 06:55:58;;;;;;;0.95;0.73;;;13.60;99.90;;;;;;7390267;19;20587;-76
2023/10/30 06:58:24;;;;;;;1.00;0.90;;;13.50;99.90;;;;;;7389170;19;20150;-76
2023/10/30 07:00:51;;;;;;;1.33;0.93;;;13.00;99.90;;;;;;7383349;19;20233;-76
2023/10/30 07:03:17;;;;;;;1.10;1.00;;;13.20;99.90;;;;;;7390507;19;20214;-76
2023/10/30 07:05:43;;;;;;;0.80;0.70;;;13.10;99.90;;;;;;7392083;19;20164;-76
2023/10/30 07:08:09;;;;;;;1.35;1.25;;;13.40;99.90;;;;;;7393787;19;20138;-76
2023/10/30 07:10:35;;;;;;;0.70;0.63;;;13.50;99.90;;;;;;7394219;19;20172;-73
2023/10/30 07:13:01;;;;;;;1.38;1.27;;;13.70;99.90;;;;;;7391255;19;20155;-75
2023/10/30 07:15:27;;;;;;;1.63;1.23;;;13.70;99.90;;;;;;7389619;19;20394;-74
2023/10/30 07:17:56;;;;;;;0.90;0.90;;;13.60;99.90;;;;;;7390028;19;20618;-73
2023/10/30 07:20:22;;;;;;;1.45;1.30;;;13.50;99.90;;;;;;7390169;19;20165;-73
2023/10/30 07:22:48;;;;;;;1.27;1.00;;;13.30;99.90;;;;;;7390501;19;20142;-74
2023/10/30 07:25:14;;;;;;;1.30;1.17;;;13.60;99.90;;;;;;7390600;19;20138;-74
2023/10/30 07:27:41;;;;;;;1.10;0.75;;;13.80;99.90;;;;;;7392976;19;20142;-74
2023/10/30 07:30:10;;;;;;;0.88;0.77;;;14.00;99.90;;;;;;7390535;19;20479;-75
2023/10/30 07:32:36;;;;;;;1.23;1.13;;;13.90;99.90;;;;;;7391039;19;20143;-75
2023/10/30 07:35:02;;;;;;;1.55;1.10;;;13.60;99.90;;;;;;7392612;19;20159;-74
2023/10/30 07:37:28;;;;;;;2.00;1.60;;;13.40;99.90;;;;;;7389538;19;20197;-75
2023/10/30 07:39:54;;;;;;;1.67;1.35;;;13.30;99.90;;;;;;7391034;19;20603;-76
2023/10/30 07:42:22;;;;;;;2.13;1.58;;;13.20;99.90;;;;;;7391278;19;20471;-75
2023/10/30 07:44:48;;;;;;;1.10;1.00;;;13.20;99.90;;;;;;7391077;19;20143;-75
2023/10/30 07:47:13;;;;;;;1.30;1.20;;;13.50;99.90;;;;;;7390209;19;20493;-75
2023/10/30 07:49:39;;;;;;;1.52;1.38;;;13.50;99.90;;;;;;7391504;19;20150;-73
2023/10/30 07:52:06;;;;;;;0.90;0.80;;;13.60;99.90;;;;;;7391917;19;20147;-74
2023/10/30 07:54:32;;;;;;;1.15;1.05;;;13.50;99.90;;;;;;7391434;19;20142;-74
2023/10/30 07:56:58;;;;;;;1.10;1.00;;;13.80;99.90;;;;;;7388679;19;20135;-75
2023/10/30 07:59:24;;;;;;;2.10;1.00;;;13.70;99.90;;;;;;7389900;19;20940;-76
2023/10/30 08:01:50;;;;;;;1.00;0.93;;;13.40;99.90;;;;;;7390673;19;20131;-75
2023/10/30 08:04:16;;;;;;;1.00;0.90;;;13.40;99.90;;;;;;7391595;19;20130;-75
2023/10/30 08:06:41;;;;;;;1.05;0.90;;;13.40;99.90;;;;;;7392217;19;20126;-75
2023/10/30 08:09:08;;;;;;;1.30;1.15;;;13.80;99.90;;;;;;7391197;19;20462;-74
2023/10/30 08:11:37;;;;;;;1.88;1.27;;;14.00;99.90;;;;;;7387918;19;20142;-73
2023/10/30 08:14:03;;;;;;;1.40;1.08;;;14.00;99.90;;;;;;7389240;19;20146;-73
2023/10/30 08:16:29;;;;;;;1.58;1.10;;;14.00;99.90;;;;;;7388479;19;20901;-75
2023/10/30 08:18:57;;;;;;;1.13;1.02;;;14.00;99.90;;;;;;7391419;19;20218;-76
2023/10/30 08:21:23;;;;;;;3.17;2.00;;;14.20;99.90;;;;;;7394710;19;20134;-77
2023/10/30 08:23:49;;;;;;;2.85;1.85;;;14.40;99.90;;;;;;7391284;19;20150;-76
2023/10/30 08:26:15;;;;;;;1.42;1.23;;;14.30;99.90;;;;;;7390787;19;20138;-75
2023/10/30 08:28:42;;;;;;;2.75;1.52;;;14.30;99.90;;;;;;7389223;19;20505;-76
2023/10/30 08:31:08;;;;;;;1.90;1.42;;;14.30;99.90;;;;;;7391691;19;20158;-75
2023/10/30 08:33:35;;;;;;;3.60;1.65;;;14.50;99.90;;;;;;7388031;19;20149;-76
2023/10/30 08:36:01;;;;;;;2.08;1.20;;;14.50;99.90;;;;;;7390147;19;20134;-78
2023/10/30 08:38:26;;;;;;;1.77;1.50;;;14.60;99.90;;;;;;7390211;19;20145;-76
2023/10/30 08:40:52;;;;;;;1.35;1.13;;;14.60;99.90;;;;;;7391454;19;20631;-76
2023/10/30 08:43:18;;;;;;;2.45;1.40;;;14.70;99.90;;;;;;7387735;19;20129;-76
2023/10/30 08:45:44;;;;;;;1.35;1.20;;;14.70;99.90;;;;;;7390645;19;20675;-75
2023/10/30 08:48:12;;;;;;;2.45;1.38;;;14.70;99.90;;;;;;7390159;19;20134;-76
2023/10/30 08:50:40;;;;;;;1.30;1.17;;;14.60;99.90;;;;;;7391998;19;20585;-75
2023/10/30 08:53:07;;;;;;;2.28;1.15;;;14.70;99.90;;;;;;7390654;19;20122;-76
2023/10/30 08:55:32;;;;;;;2.80;1.23;;;14.80;99.90;;;;;;7388988;19;20237;-75
2023/10/30 08:57:58;;;;;;;0.95;0.85;;;14.90;99.90;;;;;;7387094;19;20188;-75
2023/10/30 09:00:24;;;;;;;1.33;1.00;;;15.00;99.90;;;;;;7388723;19;20154;-77
2023/10/30 09:02:50;;;;;;;1.02;0.93;;;15.00;99.90;;;;;;7386785;19;20146;-76
2023/10/30 09:05:16;;;;;;;1.98;1.35;;;15.00;99.90;;;;;;7389833;19;20142;-76
2023/10/30 09:07:43;;;;;;;1.00;0.90;;;14.90;99.90;;;;;;7388528;19;20235;-76
2023/10/30 09:10:10;;;;;;;1.90;1.17;;;14.80;99.90;;;;;;7391834;19;20138;-76
2023/10/30 09:12:36;;;;;;;1.45;1.20;;;15.00;99.90;;;;;;7391864;19;20599;-77
2023/10/30 09:15:02;;;;;;;3.60;2.80;;;14.80;99.90;;;;;;7391894;19;20134;-76
2023/10/30 09:17:27;;;;;;;2.20;1.55;;;14.80;99.90;;;;;;7387313;19;20147;-76
2023/10/30 09:19:53;;;;;;;1.63;1.10;;;15.00;99.90;;;;;;7389233;19;20185;-78
2023/10/30 09:22:19;;;;;;;1.38;1.05;;;15.20;99.90;;;;;;7392056;19;20138;-75
2023/10/30 09:24:45;;;;;;;1.95;1.08;;;15.30;99.90;;;;;;7387039;19;20710;-76
2023/10/30 09:27:11;;;;;;;1.02;0.93;;;15.40;99.90;;;;;;7384475;19;20143;-75
2023/10/30 09:29:37;;;;;;;1.33;1.00;;;15.30;99.90;;;;;;7387555;19;20155;-76
2023/10/30 09:32:03;;;;;;;1.67;1.50;;;15.40;99.90;;;;;;7388230;19;20134;-77
2023/10/30 09:34:30;;;;;;;0.98;0.90;;;15.40;99.90;;;;;;7390096;19;20155;-76
2023/10/30 09:36:56;;;;;;;1.52;0.80;;;15.60;99.90;;;;;;7387711;19;20158;-76
2023/10/30 09:39:21;;;;;;;1.60;0.88;;;15.60;99.90;;;;;;7390912;19;20615;-75
2023/10/30 09:41:48;;;;;;;0.77;0.65;;;15.70;99.90;;;;;;7386501;19;20154;-75
2023/10/30 09:44:15;;;;;;;0.90;0.85;;;15.80;99.90;;;;;;7391047;19;20154;-75
2023/10/30 09:46:41;;;;;;;1.35;0.90;;;16.00;99.90;;;;;;7384506;19;20247;-77
2023/10/30 09:49:10;;;;;;;0.60;0.60;;;16.10;99.90;;;;;;7389797;19;20131;-75
2023/10/30 09:51:37;;;;;;;1.02;0.90;;;16.20;99.90;;;;;;7389454;19;20138;-76
2023/10/30 09:54:04;;;;;;;1.00;0.90;;;16.20;99.90;;;;;;7389729;19;20167;-75
2023/10/30 09:56:31;;;;;;;1.17;1.02;;;16.10;99.90;;;;;;7385276;19;20152;-76
2023/10/30 09:58:59;;;;;;;0.70;0.70;;;16.20;99.90;;;;;;7384544;19;20166;-77
2023/10/30 10:01:26;;;;;;;1.15;1.02;;;16.20;99.90;;;;;;7388263;19;20156;-76
2023/10/30 10:03:52;;;;;;;1.05;0.95;;;16.20;99.90;;;;;;7388020;19;20143;-76
2023/10/30 10:06:18;;;;;;;1.33;0.70;;;16.20;99.90;;;;;;7387612;19;20138;-76
2023/10/30 10:08:46;;;;;;;1.00;0.88;;;16.30;99.90;;;;;;7380017;19;20130;-75
2023/10/30 10:11:11;;;;;;;0.85;0.73;;;16.40;99.90;;;;;;7389741;19;20135;-76
2023/10/30 10:13:40;;;;;;;1.67;0.82;;;16.40;99.90;;;;;;7394702;19;20150;-76
2023/10/30 10:16:06;;;;;;;0.80;0.80;;;16.40;99.90;;;;;;7393770;19;20202;-75
2023/10/30 10:18:34;;;;;;;0.82;0.70;;;16.50;99.90;;;;;;7393065;19;20231;-77
2023/10/30 10:21:04;;;;;;;0.73;0.73;;;16.30;99.90;;;;;;7395532;19;20163;-77
2023/10/30 10:23:33;;;;;;;0.95;0.77;;;16.30;99.90;;;;;;7393892;19;20595;-75
2023/10/30 10:26:16;;;;;;;0.73;0.70;;;16.50;99.90;;;;;;7393686;19;20451;-76
2023/10/30 10:28:47;;;;;;;2.80;1.63;;;16.60;99.90;;;;;;7394457;19;20535;-75
2023/10/30 10:31:14;;;;;;;1.00;0.90;;;16.50;99.90;;;;;;7395002;19;20206;-75
2023/10/30 10:33:40;;;;;;;0.40;0.40;;;16.60;99.90;;;;;;7394422;19;20610;-76
2023/10/30 10:36:07;;;;;;;0.65;0.60;;;16.70;99.90;;;;;;7390371;19;20188;-76
2023/10/30 10:38:33;;;;;;;0.65;0.65;;;16.50;99.90;;;;;;7393932;19;20162;-76
2023/10/30 10:40:59;;;;;;;0.60;0.60;;;16.60;99.90;;;;;;7395656;19;20154;-76
2023/10/30 10:43:29;;;;;;;1.98;0.80;;;16.60;99.90;;;;;;7397625;19;20968;-76
2023/10/30 10:45:56;;;;;;;3.63;2.65;;;16.60;99.90;;;;;;7393909;19;20138;-75
2023/10/30 10:48:25;;;;;;;0.75;0.73;;;16.50;99.90;;;;;;7394061;19;20150;-76
2023/10/30 10:50:53;;;;;;;0.77;0.68;;;16.60;99.90;;;;;;7395319;19;20138;-76
2023/10/30 10:53:20;;;;;;;0.80;0.80;;;16.70;99.90;;;;;;7393859;19;20167;-75
2023/10/30 10:55:48;;;;;;;1.48;0.95;;;16.60;99.90;;;;;;7391009;19;20189;-75
2023/10/30 10:58:18;;;;;;;1.00;0.77;;;16.70;99.90;;;;;;7393191;19;20151;-75
2023/10/30 11:00:52;;;;;;;0.70;0.70;;;16.60;99.90;;;;;;7396506;19;20218;-76
2023/10/30 11:03:19;;;;;;;0.98;0.80;;;16.70;99.90;;;;;;7397062;19;20138;-76
2023/10/30 11:05:50;;;;;;;0.70;0.70;;;16.70;99.90;;;;;;7395591;19;20158;-75
2023/10/30 11:08:47;;;;;;;0.50;0.50;;;16.60;99.90;;;;;;7396973;19;20182;-76
2023/10/30 11:11:21;;;;;;;1.70;0.50;;;16.60;99.90;;;;;;7393393;19;20154;-76
2023/10/30 11:14:16;;;;;;;0.98;0.90;;;16.70;99.90;;;;;;7393273;19;20157;-76
2023/10/30 11:16:46;;;;;;;0.68;0.68;;;16.70;99.90;;;;;;7391123;19;20138;-75
2023/10/30 11:19:12;;;;;;;2.42;1.25;;;16.70;99.90;;;;;;7392339;19;20170;-75
2023/10/30 11:21:39;;;;;;;0.70;0.68;;;16.70;99.90;;;;;;7390164;19;20617;-76
2023/10/30 11:24:06;;;;;;;1.58;0.98;;;16.70;99.90;;;;;;7386058;19;20135;-77
2023/10/30 11:26:43;;;;;;;1.05;0.77;;;16.80;99.90;;;;;;7317111;19;20860;-77
2023/10/30 11:29:17;;;;;;;0.70;0.60;;;16.80;99.90;;;;;;7113351;19;20562;-79
2023/10/30 11:32:04;;;;;;;1.02;0.60;;;16.70;99.90;;;;;;7290547;19;20166;-82
2023/10/30 11:34:35;;;;;;;1.55;0.50;;;16.70;99.90;;;;;;7394521;19;20230;-82
2023/10/30 11:37:12;;;;;;;0.40;0.40;;;16.80;99.90;;;;;;7390740;19;20142;-83
2023/10/30 11:39:40;;;;;;;1.25;0.80;;;16.60;99.90;;;;;;7393354;19;20539;-80
2023/10/30 11:42:24;;;;;;;0.70;0.60;;;16.60;99.90;;;;;;7394799;19;20150;-82
2023/10/30 11:45:14;;;;;;;0.47;0.40;;;16.70;99.90;;;;;;7395129;19;20135;-82
2023/10/30 11:47:42;;;;;;;0.40;0.40;;;16.50;99.90;;;;;;7377176;19;20147;-82
2023/10/30 11:50:09;;;;;;;0.45;0.45;;;16.50;99.90;;;;;;7380499;19;20575;-78
2023/10/30 11:52:37;;;;;;;0.40;0.30;;;16.50;99.90;;;;;;7380118;19;20149;-80
2023/10/30 11:55:07;;;;;;;2.15;1.38;;;16.50;99.90;;;;;;7380600;19;20146;-78
2023/10/30 11:57:34;;;;;;;0.30;0.30;;;16.60;99.90;;;;;;7382750;19;20134;-80
2023/10/30 12:00:01;;;;;;;0.35;0.35;;;16.60;99.90;;;;;;7396088;19;20130;-82
2023/10/30 12:02:27;;;;;;;0.40;0.40;;;16.50;99.90;;;;;;7391452;19;20142;-80
2023/10/30 12:04:53;;;;;;;0.38;0.30;;;16.50;99.90;;;;;;7396544;19;20157;-81
2023/10/30 12:07:19;;;;;;;1.63;0.70;;;16.40;99.90;;;;;;7391529;19;20447;-82
2023/10/30 12:09:44;;;;;;;0.50;0.50;;;16.40;99.90;;;;;;7395229;19;20150;-82
2023/10/30 12:12:10;;;;;;;0.75;0.63;;;16.60;99.90;;;;;;7394715;19;20611;-81
2023/10/30 12:14:38;;;;;;;1.25;0.80;;;16.60;99.90;;;;;;7396794;19;20134;-82
2023/10/30 12:17:04;;;;;;;0.60;0.45;;;16.60;99.90;;;;;;7393749;19;20154;-81
2023/10/30 12:19:30;;;;;;;0.88;0.70;;;16.80;99.90;;;;;;7391472;19;20154;-80
2023/10/30 12:21:56;;;;;;;1.23;0.63;;;17.00;99.90;;;;;;7393797;19;20135;-81
2023/10/30 12:24:26;;;;;;;1.13;0.60;;;17.00;99.90;;;;;;7393580;19;20138;-80
2023/10/30 12:26:52;;;;;;;1.02;0.95;;;17.00;99.90;;;;;;7391466;19;20158;-80
2023/10/30 12:29:22;;;;;;;1.02;0.70;;;16.90;99.90;;;;;;7392107;19;20268;-82
2023/10/30 12:31:52;;;;;;;0.70;0.50;;;17.00;99.90;;;;;;7391695;19;20161;-80
2023/10/30 12:34:23;;;;;;;0.50;0.50;;;17.00;99.90;;;;;;7392871;19;20165;-79
2023/10/30 12:36:49;;;;;;;0.40;0.40;;;17.10;99.90;;;;;;7390706;19;20179;-81
2023/10/30 12:39:20;;;;;;;0.47;0.43;;;17.00;99.90;;;;;;7393386;19;20146;-82
2023/10/30 12:41:51;;;;;;;1.48;1.00;;;17.00;99.90;;;;;;7393396;19;20142;-82
2023/10/30 12:44:20;;;;;;;0.90;0.75;;;17.00;99.90;;;;;;7393545;19;20154;-80
2023/10/30 12:46:50;;;;;;;3.22;0.82;;;17.10;99.90;;;;;;7391559;19;20515;-81